createdAt,value
2022-08-03T00:01:06.857Z,92
2022-08-03T00:03:12.761Z,92
2022-08-03T00:05:18.427Z,92.2
2022-08-03T00:07:27.181Z,92.4
2022-08-03T00:11:38.763Z,92.6
2022-08-03T00:13:44.598Z,92.8
2022-08-03T00:15:50.318Z,92.9
2022-08-03T00:17:56.097Z,93
2022-08-03T00:20:01.912Z,93.1
2022-08-03T00:22:10.657Z,93.3
2022-08-03T00:24:16.463Z,93.4
2022-08-03T00:26:22.233Z,93.6
2022-08-03T00:28:28.024Z,93.7
2022-08-03T00:30:33.812Z,93.8
2022-08-03T00:32:44.316Z,93.9
2022-08-03T00:34:57.505Z,94
2022-08-03T00:36:54.140Z,94.2
2022-08-03T00:38:59.936Z,94.3
2022-08-03T00:43:31.287Z,94.6
2022-08-03T00:45:37.067Z,94.7
2022-08-03T00:47:42.879Z,94.8
2022-08-03T00:49:51.624Z,95.1
2022-08-03T00:51:57.439Z,95.2
2022-08-03T00:54:03.214Z,95.4
2022-08-03T00:56:08.987Z,95.6
2022-08-03T00:58:14.810Z,95.7
2022-08-03T01:00:20.627Z,95.9
2022-08-03T01:02:26.362Z,95.9
2022-08-03T01:04:35.106Z,96.2
2022-08-03T01:06:41.102Z,96.4
2022-08-03T01:08:46.714Z,96.5
2022-08-03T01:10:52.476Z,96.6
2022-08-03T01:12:58.269Z,96.8
2022-08-03T01:15:04.069Z,97
2022-08-03T01:17:09.863Z,97.1
2022-08-03T01:19:18.638Z,97.5
2022-08-03T01:23:30.217Z,97.7
2022-08-03T01:25:36.003Z,97.9
2022-08-03T01:27:41.824Z,98.1
2022-08-03T01:29:47.635Z,98.2
2022-08-03T01:32:58.714Z,98.4
2022-08-03T01:34:02.153Z,98.9
2022-08-03T01:36:07.980Z,99
2022-08-03T01:39:18.142Z,99.4
2022-08-03T01:41:23.912Z,99.6
2022-08-03T01:44:27.698Z,99.7
2022-08-03T01:45:35.499Z,99.8
2022-08-03T01:49:50.102Z,99.9
2022-08-03T01:52:03.179Z,99.9
2022-08-03T01:54:01.636Z,99.9
2022-08-03T01:56:07.425Z,99.9
2022-08-03T01:58:13.206Z,99.9
2022-08-03T02:00:18.986Z,99.9
2022-08-03T02:02:33.547Z,99.9
2022-08-03T02:04:33.531Z,99.9
2022-08-03T02:07:01.673Z,99.9
2022-08-03T02:08:45.102Z,99.9
2022-08-03T02:10:50.899Z,99.9
2022-08-03T02:21:56.530Z,99.9
2022-08-03T02:23:28.636Z,99.9
2022-08-03T02:34:00.585Z,99.9
2022-08-03T02:36:06.366Z,99.9
2022-08-03T02:37:10.777Z,99.9
2022-08-03T02:39:16.545Z,99.9
2022-08-03T02:41:22.343Z,99.9
2022-08-03T02:43:28.115Z,99.9
2022-08-03T02:45:36.881Z,99.9
2022-08-03T02:47:54.058Z,99.9
2022-08-03T02:49:51.488Z,99.9
2022-08-03T02:51:54.230Z,99.9
2022-08-03T02:54:00.083Z,99.9
2022-08-03T02:56:05.830Z,99.9
2022-08-03T02:58:11.610Z,99.9
2022-08-03T03:00:27.253Z,99.9
2022-08-03T03:02:26.175Z,99.9
2022-08-03T03:04:33.234Z,99.9
2022-08-03T03:06:37.761Z,99.9
2022-08-03T03:08:43.560Z,99.9
2022-08-03T03:10:53.294Z,99.9
2022-08-03T03:12:55.116Z,99.9
2022-08-03T03:15:03.892Z,99.9
2022-08-03T03:17:09.707Z,99.9
2022-08-03T03:19:15.490Z,99.9
2022-08-03T03:21:21.288Z,99.9
2022-08-03T03:23:28.685Z,99.9
2022-08-03T03:25:34.441Z,99.9
2022-08-03T03:27:40.210Z,99.9
2022-08-03T03:29:49.001Z,99.9
2022-08-03T03:31:54.786Z,99.9
2022-08-03T03:34:00.617Z,99.9
2022-08-03T03:43:31.123Z,99.9
2022-08-03T03:45:36.896Z,99.9
2022-08-03T03:47:42.713Z,99.9
2022-08-03T03:49:48.519Z,99.9
2022-08-03T03:51:54.297Z,99.9
2022-08-03T03:54:00.121Z,99.9
2022-08-03T03:56:05.885Z,99.9
2022-08-03T03:58:14.677Z,99.9
2022-08-03T04:00:20.471Z,99.9
2022-08-03T04:06:37.897Z,99.9
2022-08-03T04:12:58.347Z,99.9
2022-08-03T04:17:09.805Z,99.9
2022-08-03T04:21:21.376Z,99.9
2022-08-03T04:23:27.199Z,99.9
2022-08-03T04:25:32.986Z,99.9
2022-08-03T04:27:41.749Z,99.9
2022-08-03T04:40:42.918Z,99.9
2022-08-03T04:47:00.304Z,99.9
2022-08-03T04:49:06.354Z,99.9
2022-08-03T04:55:26.422Z,99.9
2022-08-03T04:57:32.214Z,99.9
2022-08-03T05:01:43.926Z,99.9
2022-08-03T05:03:49.637Z,99.9
2022-08-03T05:06:09.831Z,99.9
2022-08-03T05:08:01.215Z,99.9
2022-08-03T05:10:15.877Z,99.9
2022-08-03T05:12:15.986Z,99.9
2022-08-03T05:14:28.293Z,99.9
2022-08-03T05:16:27.380Z,99.9
2022-08-03T05:18:33.185Z,99.9
2022-08-03T05:20:38.991Z,99.9
2022-08-03T05:22:44.758Z,99.9
2022-08-03T05:24:53.522Z,99.9
2022-08-03T05:26:59.317Z,99.9
2022-08-03T05:29:05.110Z,99.9
2022-08-03T05:30:30.968Z,99.9
2022-08-03T05:32:15.273Z,99.9
2022-08-03T05:34:21.079Z,99.9
2022-08-03T05:36:26.862Z,99.9
2022-08-03T05:38:35.642Z,99.9
2022-08-03T05:42:47.198Z,99.9
2022-08-03T05:46:58.761Z,99.9
2022-08-03T05:49:04.637Z,99.9
2022-08-03T05:53:19.128Z,99.9
2022-08-03T05:55:24.899Z,99.9
2022-08-03T05:57:30.667Z,99.9
2022-08-03T05:59:38.483Z,99.9
2022-08-03T06:01:42.318Z,99.9
2022-08-03T06:03:48.048Z,99.9
2022-08-03T06:06:00.029Z,99.9
2022-08-03T06:08:02.593Z,99.9
2022-08-03T06:10:37.319Z,99.9
2022-08-03T06:12:14.422Z,99.9
2022-08-03T06:14:19.900Z,99.9
2022-08-03T06:16:25.678Z,99.9
2022-08-03T06:18:31.447Z,99.9
2022-08-03T06:20:37.214Z,99.9
2022-08-03T06:22:50.733Z,99.9
2022-08-03T06:24:53.696Z,99.9
2022-08-03T06:26:57.540Z,99.8
2022-08-03T06:30:07.670Z,99.7
2022-08-03T06:32:13.433Z,99.2
2022-08-03T06:34:34.393Z,98
2022-08-03T06:36:27.940Z,97.4
2022-08-03T06:38:33.702Z,96.9
2022-08-03T06:40:39.466Z,95.1
2022-08-03T06:42:45.247Z,79.4
2022-08-03T06:46:56.697Z,71.4
2022-08-03T06:49:02.449Z,75.2
2022-08-03T06:51:11.129Z,74.3
2022-08-03T06:53:19.903Z,73.4
2022-08-03T06:55:22.489Z,71.4
2022-08-03T06:57:28.148Z,66.9
2022-08-03T07:00:07.870Z,66.2
2022-08-03T07:01:39.545Z,66.2
2022-08-03T07:03:52.150Z,65.6
2022-08-03T07:05:53.773Z,65.9
2022-08-03T07:07:59.390Z,66
2022-08-03T07:10:05.039Z,67.5
2022-08-03T07:14:16.247Z,69.1
2022-08-03T07:16:21.854Z,69.3
2022-08-03T07:25:51.553Z,63.7
2022-08-03T07:27:57.124Z,63.2
2022-08-03T07:30:02.704Z,62.8
2022-08-03T07:32:08.251Z,62.6
2022-08-03T07:34:16.803Z,61.8
2022-08-03T07:36:22.352Z,62
2022-08-03T07:40:33.420Z,61.9
2022-08-03T07:42:38.910Z,62.1
2022-08-03T07:44:44.407Z,62.1
2022-08-03T07:46:49.917Z,61.9
2022-08-03T07:51:03.950Z,61.8
2022-08-03T07:55:15.143Z,63.2
2022-08-03T07:57:20.445Z,63.5
2022-08-03T08:03:52.627Z,60.5
2022-08-03T08:05:45.398Z,59.9
2022-08-03T08:07:51.826Z,59.3
2022-08-03T08:09:56.314Z,58.9
2022-08-03T08:14:07.203Z,58.9
2022-08-03T08:18:21.146Z,60.4
2022-08-03T08:20:28.264Z,60.7
2022-08-03T08:29:13.591Z,60.5
2022-08-03T08:33:37.252Z,60.6
2022-08-03T08:37:38.193Z,61
2022-08-03T08:39:43.571Z,61
2022-08-03T08:43:59.832Z,60.7
2022-08-03T08:48:08.490Z,59.8
2022-08-03T08:50:27.083Z,59.6
2022-08-03T08:54:24.249Z,59.4
2022-08-03T09:00:43.479Z,58.9
2022-08-03T09:02:48.818Z,58.7
2022-08-03T09:04:54.203Z,58.4
2022-08-03T09:07:19.299Z,58.1
2022-08-03T09:09:04.974Z,58
2022-08-03T09:11:12.081Z,57.8
2022-08-03T09:13:15.737Z,57.4
2022-08-03T09:15:24.178Z,57.2
2022-08-03T09:17:29.554Z,57.1
2022-08-03T09:19:34.954Z,56.8
2022-08-03T09:26:57.028Z,56.1
2022-08-03T09:29:09.609Z,55.4
2022-08-03T09:31:10.664Z,55
2022-08-03T09:33:16.041Z,54.5
2022-08-03T09:35:33.090Z,53.7
2022-08-03T09:38:11.133Z,53.6
2022-08-03T09:39:41.405Z,53.5
2022-08-03T09:41:37.616Z,53.5
2022-08-03T09:43:46.072Z,53.5
2022-08-03T09:45:51.451Z,53.6
2022-08-03T09:52:32.781Z,52.9
2022-08-03T09:54:20.291Z,52.7
2022-08-03T09:56:33.495Z,52.4
2022-08-03T09:58:26.946Z,52.4
2022-08-03T10:02:37.778Z,52.1
2022-08-03T10:04:43.197Z,52
2022-08-03T10:08:54.028Z,51.7
2022-08-03T10:10:59.441Z,51.7
2022-08-03T10:18:22.969Z,51.3
2022-08-03T10:20:28.392Z,51.2
2022-08-03T10:22:33.828Z,51.2
2022-08-03T10:26:49.963Z,51.4
2022-08-03T10:28:53.169Z,51.3
2022-08-03T10:30:58.580Z,51.2
2022-08-03T10:33:04.038Z,51
2022-08-03T10:35:19.663Z,51.1
2022-08-03T10:37:14.914Z,51.1
2022-08-03T10:39:20.360Z,51
2022-08-03T10:41:28.847Z,50.7
2022-08-03T10:43:34.273Z,50.5
2022-08-03T10:45:39.739Z,50.2
2022-08-03T10:51:56.057Z,49.5
2022-08-03T10:56:09.999Z,48.4
2022-08-03T10:58:15.426Z,48.1
2022-08-03T11:00:20.860Z,48.2
2022-08-03T11:02:26.315Z,48.3
2022-08-03T11:04:31.749Z,48.7
2022-08-03T11:06:37.788Z,48.8
2022-08-03T11:08:42.852Z,48.6
2022-08-03T11:10:51.139Z,47.2
2022-08-03T11:12:56.567Z,46.8
2022-08-03T11:15:02.070Z,46.4
2022-08-03T11:16:07.841Z,46.4
2022-08-03T11:20:17.144Z,45.8
2022-08-03T11:24:31.044Z,46.2
2022-08-03T11:26:36.526Z,46.2
2022-08-03T11:28:41.920Z,46.5
2022-08-03T11:30:47.377Z,46.6
2022-08-03T11:32:52.807Z,46.6
2022-08-03T11:37:03.710Z,45.4
2022-08-03T11:41:17.661Z,45.1
2022-08-03T11:45:28.515Z,45.5
2022-08-03T11:47:33.968Z,45.4
2022-08-03T11:49:39.430Z,45.3
2022-08-03T11:51:44.845Z,45.3
2022-08-03T11:53:53.304Z,45.6
2022-08-03T11:55:58.755Z,45.8
2022-08-03T11:59:00.851Z,45.9
2022-08-03T12:00:10.062Z,45.9
2022-08-03T12:02:15.087Z,45.9
2022-08-03T12:04:20.556Z,45.6
2022-08-03T12:06:25.966Z,45.5
2022-08-03T12:08:34.451Z,44.8
2022-08-03T12:10:39.903Z,44.6
2022-08-03T12:12:46.680Z,44.2
2022-08-03T12:15:16.179Z,43.3
2022-08-03T12:17:21.887Z,43.2
2022-08-03T12:19:27.126Z,43
2022-08-03T12:21:35.661Z,43.2
2022-08-03T12:23:41.189Z,43.3
2022-08-03T12:25:46.657Z,43.7
2022-08-03T12:29:59.075Z,44.1
2022-08-03T12:32:03.171Z,43.9
2022-08-03T12:34:08.690Z,43.5
2022-08-03T12:36:17.236Z,43.5
2022-08-03T12:38:22.743Z,43.4
2022-08-03T12:40:28.617Z,42.9
2022-08-03T12:42:35.050Z,42.8
2022-08-03T12:44:39.344Z,42.4
2022-08-03T12:46:47.987Z,42
2022-08-03T12:48:50.450Z,41.8
2022-08-03T12:50:58.994Z,41.6
2022-08-03T12:53:04.592Z,41.5
2022-08-03T12:59:21.149Z,41.3
2022-08-03T13:03:38.448Z,40.6
2022-08-03T13:05:40.757Z,40.1
2022-08-03T13:07:46.279Z,39.8
2022-08-03T13:09:51.853Z,39.7
2022-08-03T13:10:56.103Z,39.8
2022-08-03T13:13:01.733Z,40
2022-08-03T13:19:21.303Z,40.2
2022-08-03T13:21:26.834Z,40.1
2022-08-03T13:23:32.346Z,39.8
2022-08-03T13:28:04.740Z,39.4
2022-08-03T13:31:54.514Z,39.1
2022-08-03T13:34:03.068Z,39.1
2022-08-03T13:36:08.624Z,39.1
2022-08-03T13:38:15.329Z,39.1
2022-08-03T13:40:19.714Z,39.2
2022-08-03T13:42:25.232Z,39.3
2022-08-03T13:44:30.771Z,39.6
2022-08-03T13:46:36.313Z,39.8
2022-08-03T13:48:44.894Z,40.4
2022-08-03T13:50:50.421Z,40.6
2022-08-03T13:52:55.979Z,41
2022-08-03T13:55:01.515Z,41.2
2022-08-03T13:58:02.244Z,41.5
2022-08-03T13:59:12.639Z,41.6
2022-08-03T14:05:32.471Z,42.7
2022-08-03T14:08:42.092Z,43
2022-08-03T14:10:47.608Z,43
2022-08-03T14:19:12.826Z,43.5
2022-08-03T14:21:18.350Z,43.8
2022-08-03T14:23:23.881Z,43.8
2022-08-03T14:25:29.423Z,43.9
2022-08-03T14:27:34.948Z,43.9
2022-08-03T14:29:40.561Z,44.3
2022-08-03T14:32:09.496Z,45.1
2022-08-03T14:33:54.636Z,45.5
2022-08-03T14:36:00.150Z,45.7
2022-08-03T14:38:05.713Z,46
2022-08-03T14:40:11.306Z,46.2
2022-08-03T14:42:16.784Z,46.4
2022-08-03T14:44:22.406Z,46.4
2022-08-03T14:46:30.891Z,46.4
2022-08-03T14:50:30.252Z,46.4
2022-08-03T14:50:45.656Z,46.3
2022-08-03T14:52:47.531Z,46.1
2022-08-03T14:54:53.097Z,46.2
2022-08-03T14:56:58.626Z,46.1
2022-08-03T14:59:04.190Z,46.1
2022-08-03T15:02:04.376Z,46.2
2022-08-03T15:03:18.364Z,46.1
2022-08-03T15:05:23.853Z,45.9
2022-08-03T15:06:28.135Z,46
2022-08-03T15:08:33.665Z,45.9
2022-08-03T15:12:44.763Z,46
2022-08-03T15:14:53.339Z,46.5
2022-08-03T15:16:58.859Z,46.5
2022-08-03T15:19:04.794Z,46.8
2022-08-03T15:23:15.680Z,47
2022-08-03T15:26:02.191Z,47
2022-08-03T15:27:28.232Z,47
2022-08-03T15:30:08.828Z,46.8
2022-08-03T15:31:42.231Z,46.8
2022-08-03T15:33:47.779Z,46.7
2022-08-03T15:35:53.425Z,46.6
2022-08-03T15:37:58.862Z,46.6
2022-08-03T15:40:04.386Z,46.6
2022-08-03T15:44:18.482Z,46.4
2022-08-03T15:46:29.642Z,46.5
2022-08-03T15:48:29.553Z,46.4
2022-08-03T15:50:35.090Z,46.5
2022-08-03T15:56:51.685Z,46.8
2022-08-03T15:59:12.225Z,46.9
2022-08-03T16:01:05.959Z,47.1
2022-08-03T16:03:11.384Z,47.1
2022-08-03T16:05:42.265Z,47.3
2022-08-03T16:08:02.930Z,47.4
2022-08-03T16:09:53.347Z,47.4
2022-08-03T16:12:01.942Z,47.2
2022-08-03T16:14:30.981Z,47.1
2022-08-03T16:16:13.043Z,47.3
2022-08-03T16:18:18.616Z,47.1
2022-08-03T16:20:29.270Z,47.2
2022-08-03T16:22:29.745Z,47.4
2022-08-03T16:24:35.273Z,47.7
2022-08-03T16:26:43.846Z,48.1
2022-08-03T16:28:49.412Z,48.3
2022-08-03T16:30:54.989Z,48.5
2022-08-03T16:35:06.161Z,48.4
2022-08-03T16:37:22.440Z,48.4
2022-08-03T16:39:17.378Z,48.3
2022-08-03T16:41:25.854Z,48.3
2022-08-03T16:43:31.423Z,48.2
2022-08-03T16:45:36.992Z,48.1
2022-08-03T16:47:42.636Z,48
2022-08-03T16:51:53.704Z,47.9
2022-08-03T16:54:07.977Z,47.9
2022-08-03T16:56:10.674Z,47.7
2022-08-03T16:58:13.446Z,47.8
2022-08-03T17:00:34.346Z,47.7
2022-08-03T17:01:24.737Z,47.8
2022-08-03T17:03:28.915Z,47.8
2022-08-03T17:05:47.325Z,47.9
2022-08-03T17:07:40.086Z,48
2022-08-03T17:09:48.705Z,48.2
2022-08-03T17:11:54.265Z,48.5
2022-08-03T17:13:59.851Z,48.8
2022-08-03T17:16:05.414Z,49
2022-08-03T17:18:11.020Z,49.3
2022-08-03T17:20:16.628Z,49.6
2022-08-03T17:22:22.714Z,49.9
2022-08-03T17:24:30.793Z,50.3
2022-08-03T17:26:36.419Z,50.6
2022-08-03T17:28:50.139Z,50.8
2022-08-03T17:30:47.556Z,51
2022-08-03T17:32:57.722Z,51.1
2022-08-03T17:34:58.735Z,51.2
2022-08-03T17:37:05.379Z,51.2
2022-08-03T17:39:13.074Z,51.3
2022-08-03T17:41:18.613Z,51.4
2022-08-03T17:44:13.937Z,51.6
2022-08-03T17:45:52.133Z,51.8
2022-08-03T17:49:41.040Z,52.3
2022-08-03T17:51:50.022Z,52.5
2022-08-03T17:53:55.240Z,52.9
2022-08-03T17:56:04.260Z,53
2022-08-03T17:58:06.481Z,53.1
2022-08-03T17:59:10.799Z,53.2
2022-08-03T18:02:00.695Z,53.2
2022-08-03T18:03:22.080Z,53.3
2022-08-03T18:06:11.943Z,53.2
2022-08-03T18:07:41.491Z,53.5
2022-08-03T18:10:03.699Z,53.6
2022-08-03T18:11:50.749Z,53.8
2022-08-03T18:13:57.744Z,53.8
2022-08-03T18:15:58.856Z,54
2022-08-03T18:18:10.551Z,54.1
2022-08-03T18:24:24.870Z,54.5
2022-08-03T18:26:30.060Z,54.6
2022-08-03T18:28:35.810Z,54.8
2022-08-03T18:30:54.536Z,55
2022-08-03T18:33:01.048Z,55.2
2022-08-03T18:34:53.017Z,55.4
2022-08-03T18:37:04.368Z,55.8
2022-08-03T18:39:06.970Z,56
2022-08-03T18:41:17.169Z,56.2
2022-08-03T18:43:18.203Z,56.2
2022-08-03T18:45:57.249Z,56.4
2022-08-03T18:47:50.641Z,56.5
2022-08-03T18:49:35.234Z,56.7
2022-08-03T18:51:46.565Z,56.9
2022-08-03T18:54:02.494Z,57
2022-08-03T18:56:02.335Z,57.1
2022-08-03T18:56:59.486Z,57.2
2022-08-03T18:59:05.141Z,57.2
2022-08-03T19:01:57.246Z,57.3
2022-08-03T19:03:20.306Z,57.4
2022-08-03T19:07:36.128Z,57.7
2022-08-03T19:09:36.484Z,57.8
2022-08-03T19:12:14.214Z,57.9
2022-08-03T19:13:50.235Z,58.1
2022-08-03T19:15:53.483Z,58.1
2022-08-03T19:17:59.213Z,58.3
2022-08-03T19:22:15.974Z,58.8
2022-08-03T19:24:19.197Z,59.1
2022-08-03T19:26:31.172Z,59.4
2022-08-03T19:28:30.560Z,59.7
2022-08-03T19:30:38.591Z,60.1
2022-08-03T19:32:41.934Z,60.3
2022-08-03T19:34:50.592Z,60.8
2022-08-03T19:36:56.302Z,61
2022-08-03T19:39:02.156Z,61.2
2022-08-03T19:41:07.658Z,61.2
2022-08-03T19:43:13.381Z,61.2
2022-08-03T19:45:19.045Z,61.2
2022-08-03T19:47:24.713Z,61.3
2022-08-03T19:50:05.098Z,61.3
2022-08-03T19:52:01.367Z,61.4
2022-08-03T19:53:45.020Z,61.6
2022-08-03T19:56:15.936Z,61.6
2022-08-03T19:58:24.402Z,61.8
2022-08-03T20:00:35.819Z,62
2022-08-03T20:02:35.947Z,62.7
2022-08-03T20:04:41.606Z,63.1
2022-08-03T20:06:47.433Z,63.6
2022-08-03T20:13:04.394Z,64.5
2022-08-03T20:19:24.618Z,65
2022-08-03T20:21:30.247Z,65.2
2022-08-03T20:23:37.207Z,65.4
2022-08-03T20:25:48.586Z,65.6
2022-08-03T20:28:06.890Z,65.8
2022-08-03T20:30:06.478Z,66.1
2022-08-03T20:32:01.639Z,66.6
2022-08-03T20:36:13.034Z,67.2
2022-08-03T20:38:18.894Z,67.5
2022-08-03T20:40:27.318Z,67.7
2022-08-03T20:44:35.862Z,68.3
2022-08-03T20:46:53.300Z,68.8
2022-08-03T20:48:50.243Z,69
2022-08-03T20:50:55.968Z,69.4
2022-08-03T20:52:00.381Z,69.5
2022-08-03T20:54:09.683Z,69.8
2022-08-03T20:56:11.822Z,70
2022-08-03T20:58:17.489Z,70.2
2022-08-03T21:00:26.268Z,70.6
2022-08-03T21:02:32.415Z,70.9
2022-08-03T21:04:37.613Z,71.1
2022-08-03T21:06:45.684Z,71.2
2022-08-03T21:08:49.058Z,71.4
2022-08-03T21:10:54.764Z,71.5
2022-08-03T21:13:08.187Z,57.6
2022-08-03T21:17:31.148Z,72.3
2022-08-03T21:23:40.258Z,72.8
2022-08-03T21:25:37.854Z,72.9
2022-08-03T21:27:43.591Z,73
2022-08-03T21:29:54.172Z,73.3
2022-08-03T21:31:59.647Z,73.4
2022-08-03T21:34:05.382Z,73.5
2022-08-03T21:38:16.835Z,73.8
2022-08-03T21:40:22.605Z,74
2022-08-03T21:42:28.339Z,74.3
2022-08-03T21:44:37.036Z,74.5
2022-08-03T21:50:06.895Z,74.9
2022-08-03T21:51:58.644Z,74.9
2022-08-03T21:54:04.717Z,75
2022-08-03T21:56:10.123Z,75.1
2022-08-03T21:58:18.867Z,75.3
2022-08-03T22:00:24.562Z,75.4
2022-08-03T22:02:32.220Z,75.5
2022-08-03T22:04:51.073Z,75.4
2022-08-03T22:06:41.814Z,75.6
2022-08-03T22:08:47.557Z,75.6
2022-08-03T22:10:53.313Z,75.7
2022-08-03T22:13:02.052Z,76
2022-08-03T22:21:27.756Z,76.4
2022-08-03T22:23:30.812Z,76.4
2022-08-03T22:25:36.558Z,76.3
2022-08-03T22:27:45.251Z,76.2
2022-08-03T22:31:58.472Z,76.3
2022-08-03T22:34:02.508Z,76.3
2022-08-03T22:36:08.258Z,76.5
2022-08-03T22:38:13.995Z,76.6
2022-08-03T22:40:19.788Z,76.7
2022-08-03T22:42:28.537Z,76.8
2022-08-03T22:44:34.240Z,77
2022-08-03T22:46:39.978Z,77
2022-08-03T22:47:44.336Z,77.3
2022-08-03T22:54:01.608Z,77.6
2022-08-03T22:56:10.373Z,78.3
2022-08-03T22:58:16.108Z,78.5
2022-08-03T23:00:21.867Z,78.9
2022-08-03T23:02:27.600Z,79.2
2022-08-03T23:04:33.378Z,79.5
2022-08-03T23:06:39.281Z,79.6
2022-08-03T23:08:44.859Z,79.8
2022-08-03T23:10:53.617Z,79.9
2022-08-03T23:12:59.380Z,79.9
2022-08-03T23:15:05.120Z,79.9
2022-08-03T23:17:10.873Z,80
2022-08-03T23:19:25.083Z,80
2022-08-03T23:21:52.969Z,80.1
2022-08-03T23:23:28.150Z,80.2
2022-08-03T23:27:42.628Z,80.7
2022-08-03T23:31:54.169Z,81
2022-08-03T23:33:59.913Z,81.3
2022-08-03T23:36:29.113Z,81.4
2022-08-03T23:38:22.209Z,81.6
2022-08-03T23:40:20.222Z,81.6
2022-08-03T23:42:25.932Z,81.7
2022-08-03T23:44:31.717Z,81.6
2022-08-03T23:46:57.305Z,80.7
2022-08-03T23:49:03.055Z,80.7
2022-08-03T23:51:08.820Z,80.6
2022-08-03T23:53:17.558Z,80.5
2022-08-03T23:55:23.324Z,80.5
2022-08-03T23:59:35.000Z,80.9
